Time;durP1;ratioP1;P1;durP2;ratioP2;P2;SDS_P1;SDS_P2;PMS_P1;PMS_P2;Temp;Humidity;BMP_temperature;BMP_pressure;BME280_temperature;BME280_humidity;BME280_pressure;Samples;Min_cycle;Max_cycle;Signal;HPM_P1;HPM_P2
2024/03/02 00:02:05;;;;;;;4.07;1.45;;;21.60;32.80;;;;;;5154208;27;20302;-65
2024/03/02 00:04:32;;;;;;;3.17;1.10;;;21.60;32.80;;;;;;5153925;27;20192;-66
2024/03/02 00:06:59;;;;;;;3.85;1.20;;;21.60;32.80;;;;;;5153631;27;20314;-66
2024/03/02 00:09:26;;;;;;;3.95;1.15;;;21.60;32.80;;;;;;5153387;27;20648;-66
2024/03/02 00:11:53;;;;;;;3.80;1.17;;;21.60;32.80;;;;;;5153454;27;20219;-65
2024/03/02 00:14:24;;;;;;;3.15;1.33;;;21.60;32.80;;;;;;5153138;27;20234;-66
2024/03/02 00:16:51;;;;;;;5.78;1.27;;;21.60;32.80;;;;;;5153722;27;20294;-66
2024/03/02 00:19:18;;;;;;;3.40;1.23;;;21.60;32.80;;;;;;5153309;27;20665;-66
2024/03/02 00:21:45;;;;;;;3.10;1.10;;;21.60;32.80;;;;;;5155275;27;20299;-66
2024/03/02 00:24:22;;;;;;;3.72;1.23;;;21.60;32.80;;;;;;5157414;27;20184;-66
2024/03/02 00:26:49;;;;;;;3.72;1.27;;;21.50;32.70;;;;;;5157043;27;20715;-66
2024/03/02 00:29:19;;;;;;;2.85;1.20;;;21.50;32.70;;;;;;5157013;27;20184;-64
2024/03/02 00:31:48;;;;;;;3.78;1.33;;;21.60;32.80;;;;;;5157410;27;20211;-66
2024/03/02 00:34:16;;;;;;;6.60;1.50;;;21.50;32.70;;;;;;5156899;27;20714;-65
2024/03/02 00:36:43;;;;;;;2.88;1.17;;;21.50;32.70;;;;;;5157135;27;20586;-64
2024/03/02 00:39:13;;;;;;;5.60;1.30;;;21.50;33.30;;;;;;5156901;27;20190;-65
2024/03/02 00:41:43;;;;;;;3.60;1.05;;;21.50;32.70;;;;;;5156981;27;20571;-65
2024/03/02 00:44:12;;;;;;;2.72;1.17;;;21.50;32.70;;;;;;5156854;27;20188;-66
2024/03/02 00:46:40;;;;;;;3.67;1.00;;;21.50;32.70;;;;;;5156902;27;20298;-65
2024/03/02 00:49:19;;;;;;;4.43;1.42;;;21.50;32.70;;;;;;5156981;27;20232;-66
2024/03/02 00:51:48;;;;;;;4.47;1.15;;;21.50;32.70;;;;;;5156801;27;20267;-66
2024/03/02 00:54:16;;;;;;;3.67;1.20;;;21.50;32.70;;;;;;5156820;27;20184;-66
2024/03/02 00:56:43;;;;;;;3.25;1.20;;;21.50;32.70;;;;;;5156960;27;20310;-65
2024/03/02 00:59:11;;;;;;;3.42;1.50;;;21.50;32.70;;;;;;5156355;27;20179;-66
2024/03/02 01:01:38;;;;;;;2.17;1.20;;;21.50;32.70;;;;;;5156904;27;20232;-66
2024/03/02 01:04:06;;;;;;;3.45;1.58;;;21.50;32.70;;;;;;5156665;27;20266;-66
2024/03/02 01:06:34;;;;;;;3.50;1.27;;;21.50;32.70;;;;;;5156418;27;20218;-65
2024/03/02 01:09:02;;;;;;;3.42;1.33;;;21.60;32.80;;;;;;5156689;27;20410;-66
2024/03/02 01:11:29;;;;;;;3.35;1.48;;;21.60;32.80;;;;;;5156290;27;20211;-67
2024/03/02 01:13:56;;;;;;;3.67;1.20;;;21.60;32.80;;;;;;5156128;27;20222;-66
2024/03/02 01:16:23;;;;;;;3.72;1.48;;;21.50;32.70;;;;;;5156397;27;20303;-66
2024/03/02 01:18:50;;;;;;;3.25;1.08;;;21.60;32.80;;;;;;5156465;27;20242;-65
2024/03/02 01:21:17;;;;;;;3.17;1.17;;;21.60;32.80;;;;;;5156157;27;20298;-66
2024/03/02 01:23:46;;;;;;;3.95;1.33;;;21.60;32.80;;;;;;5156261;27;20192;-65
2024/03/02 01:26:13;;;;;;;2.83;1.02;;;21.60;33.40;;;;;;5156260;27;20226;-66
2024/03/02 01:28:40;;;;;;;3.35;1.20;;;21.50;33.30;;;;;;5153865;27;20212;-66
2024/03/02 01:31:07;;;;;;;4.18;1.25;;;21.50;32.70;;;;;;5116664;27;20199;-66
2024/03/02 01:33:33;;;;;;;6.32;1.10;;;21.50;32.70;;;;;;5114595;28;20221;-65
2024/03/02 01:36:00;;;;;;;4.72;1.35;;;21.50;32.70;;;;;;5114644;28;20189;-65
2024/03/02 01:38:28;;;;;;;3.65;1.15;;;21.50;32.70;;;;;;5114507;28;20563;-64
2024/03/02 01:40:57;;;;;;;2.95;1.20;;;21.50;32.70;;;;;;5114684;28;20191;-65
2024/03/02 01:43:24;;;;;;;3.10;1.15;;;21.50;32.70;;;;;;5114522;28;20280;-65
2024/03/02 01:45:50;;;;;;;3.08;1.20;;;21.50;32.70;;;;;;5114602;28;20186;-65
2024/03/02 01:48:17;;;;;;;3.53;1.30;;;21.50;32.70;;;;;;5114610;28;20231;-65
2024/03/02 01:50:44;;;;;;;3.67;1.30;;;21.50;32.70;;;;;;5114286;28;20322;-65
2024/03/02 01:53:11;;;;;;;3.70;1.10;;;21.50;32.70;;;;;;5114606;28;20238;-65
2024/03/02 01:55:38;;;;;;;4.88;1.20;;;21.50;32.70;;;;;;5114183;28;20737;-66
2024/03/02 01:58:06;;;;;;;2.60;1.20;;;21.50;32.70;;;;;;5114021;28;20732;-66
2024/03/02 02:00:34;;;;;;;3.28;1.10;;;21.50;32.70;;;;;;5114323;28;20220;-64
2024/03/02 02:03:00;;;;;;;3.33;1.00;;;21.50;32.70;;;;;;5114416;28;20234;-64
2024/03/02 02:05:27;;;;;;;4.82;1.20;;;21.50;32.70;;;;;;5113556;28;20582;-66
2024/03/02 02:07:54;;;;;;;2.90;1.10;;;21.50;32.70;;;;;;5114249;28;20262;-66
2024/03/02 02:10:21;;;;;;;2.00;0.95;;;21.50;32.70;;;;;;5114188;28;20276;-66
2024/03/02 02:12:49;;;;;;;4.40;1.10;;;21.50;32.70;;;;;;5113969;28;20256;-66
2024/03/02 02:15:27;;;;;;;5.55;1.15;;;21.50;32.70;;;;;;5113710;28;20671;-65
2024/03/02 02:17:54;;;;;;;3.40;1.20;;;21.50;32.70;;;;;;5113828;28;20300;-66
2024/03/02 02:20:22;;;;;;;4.28;1.20;;;21.50;32.70;;;;;;5113492;28;20648;-66
2024/03/02 02:23:00;;;;;;;6.28;1.40;;;21.50;32.70;;;;;;5114046;28;20217;-66
2024/03/02 02:25:27;;;;;;;3.15;1.20;;;21.50;32.70;;;;;;5113807;28;20267;-66
2024/03/02 02:27:55;;;;;;;4.65;1.05;;;21.50;32.70;;;;;;5113685;28;20315;-66
2024/03/02 02:30:22;;;;;;;3.00;1.30;;;21.50;32.70;;;;;;5113404;28;20189;-64
2024/03/02 02:32:49;;;;;;;3.30;1.10;;;21.50;32.70;;;;;;5113510;28;20224;-65
2024/03/02 02:35:16;;;;;;;3.00;1.05;;;21.50;32.70;;;;;;5113312;28;20196;-65
2024/03/02 02:37:44;;;;;;;2.65;1.08;;;21.50;32.70;;;;;;5113661;28;20230;-66
2024/03/02 02:40:13;;;;;;;4.40;1.38;;;21.40;32.60;;;;;;5113530;28;20185;-65
2024/03/02 02:42:41;;;;;;;3.25;1.00;;;21.50;32.70;;;;;;5112981;28;20292;-66
2024/03/02 02:45:08;;;;;;;4.82;1.40;;;21.50;32.70;;;;;;5112866;28;20185;-65
2024/03/02 02:47:35;;;;;;;4.20;1.15;;;21.50;32.70;;;;;;5113137;28;20765;-65
2024/03/02 02:50:04;;;;;;;4.43;1.20;;;21.50;32.70;;;;;;5113099;28;20190;-66
2024/03/02 02:52:36;;;;;;;3.28;1.48;;;21.50;32.70;;;;;;5113439;28;20209;-65
2024/03/02 02:55:04;;;;;;;3.08;1.27;;;21.50;32.70;;;;;;5113025;28;20228;-66
2024/03/02 02:57:35;;;;;;;4.05;1.20;;;21.50;32.70;;;;;;5113246;28;20300;-64
2024/03/02 03:00:09;;;;;;;3.00;1.27;;;21.50;32.70;;;;;;5113273;28;20556;-65
2024/03/02 03:02:37;;;;;;;4.55;1.20;;;21.50;32.70;;;;;;5113353;28;20252;-64
2024/03/02 03:05:05;;;;;;;2.78;1.10;;;21.50;32.70;;;;;;5112651;28;20682;-66
2024/03/02 03:07:32;;;;;;;4.28;0.95;;;21.50;32.70;;;;;;5112668;28;20752;-66
2024/03/02 03:10:01;;;;;;;4.20;1.15;;;21.50;32.70;;;;;;5113071;28;20208;-65
2024/03/02 03:12:27;;;;;;;3.15;1.23;;;21.50;32.70;;;;;;5112892;28;20223;-65
2024/03/02 03:14:56;;;;;;;5.43;1.27;;;21.50;33.30;;;;;;5112890;28;20275;-66
2024/03/02 03:17:23;;;;;;;3.72;1.15;;;21.50;32.70;;;;;;5113055;28;20249;-66
2024/03/02 03:19:50;;;;;;;2.50;1.13;;;21.50;32.70;;;;;;5112765;28;20276;-66
2024/03/02 03:22:17;;;;;;;4.63;1.58;;;21.50;32.70;;;;;;5126929;27;20220;-65
2024/03/02 03:24:44;;;;;;;3.97;1.20;;;21.50;32.70;;;;;;5133222;27;20189;-65
2024/03/02 03:27:11;;;;;;;1.92;1.05;;;21.50;32.70;;;;;;5133023;27;20587;-63
2024/03/02 03:29:38;;;;;;;4.30;1.65;;;21.50;32.70;;;;;;5133557;27;20219;-65
2024/03/02 03:32:07;;;;;;;4.70;1.50;;;21.50;32.70;;;;;;5133307;27;20303;-66
2024/03/02 03:34:34;;;;;;;3.75;1.20;;;21.50;32.70;;;;;;5132797;28;20189;-66
2024/03/02 03:37:01;;;;;;;4.57;1.48;;;21.50;32.70;;;;;;5133297;28;20712;-65
2024/03/02 03:39:28;;;;;;;3.90;1.20;;;21.50;32.70;;;;;;5133195;28;20214;-63
2024/03/02 03:41:55;;;;;;;4.90;1.42;;;21.50;32.70;;;;;;5133223;28;20227;-65
2024/03/02 03:44:22;;;;;;;3.45;1.20;;;21.50;32.70;;;;;;5133156;28;20271;-64
2024/03/02 03:46:49;;;;;;;4.82;1.10;;;21.50;32.70;;;;;;5133155;28;20218;-66
2024/03/02 03:49:18;;;;;;;3.15;1.02;;;21.50;32.70;;;;;;5132903;28;20212;-65
2024/03/02 03:51:45;;;;;;;3.58;1.05;;;21.40;32.60;;;;;;5132869;28;20216;-64
2024/03/02 03:54:12;;;;;;;4.22;1.50;;;21.50;32.70;;;;;;5133202;27;20207;-65
2024/03/02 03:56:39;;;;;;;3.08;1.15;;;21.50;32.70;;;;;;5134659;27;20304;-65
2024/03/02 03:59:05;;;;;;;3.28;1.20;;;21.40;32.60;;;;;;5137232;27;20560;-65
2024/03/02 04:01:33;;;;;;;3.47;1.42;;;21.40;32.60;;;;;;5137345;27;20188;-66
2024/03/02 04:04:01;;;;;;;4.72;1.50;;;21.50;32.70;;;;;;5136967;27;20241;-66
2024/03/02 04:06:30;;;;;;;3.20;1.13;;;21.40;32.70;;;;;;5137070;27;20205;-66
2024/03/02 04:08:57;;;;;;;3.03;1.10;;;21.40;32.70;;;;;;5137071;27;20295;-66
2024/03/02 04:11:24;;;;;;;3.53;1.10;;;21.40;32.70;;;;;;5136623;27;20272;-66
2024/03/02 04:13:50;;;;;;;3.17;1.10;;;21.40;32.70;;;;;;5140999;27;20228;-65
2024/03/02 04:16:17;;;;;;;3.13;0.98;;;21.40;32.70;;;;;;5157250;27;20679;-66
2024/03/02 04:18:44;;;;;;;3.60;1.58;;;21.40;32.80;;;;;;5157410;27;20286;-65
2024/03/02 04:21:11;;;;;;;3.58;1.02;;;21.40;32.80;;;;;;5157581;27;20187;-64
2024/03/02 04:23:40;;;;;;;3.17;1.17;;;21.40;32.80;;;;;;5157601;27;20212;-65
2024/03/02 04:26:07;;;;;;;3.40;1.25;;;21.40;32.80;;;;;;5157291;27;20180;-65
2024/03/02 04:28:33;;;;;;;4.43;1.35;;;21.50;32.90;;;;;;5157290;27;20231;-65
2024/03/02 04:31:00;;;;;;;2.67;1.15;;;21.40;32.80;;;;;;5157084;27;20191;-65
2024/03/02 04:33:27;;;;;;;4.70;1.15;;;21.40;32.80;;;;;;5157058;27;20581;-65
2024/03/02 04:35:54;;;;;;;3.72;1.00;;;21.50;32.90;;;;;;5157283;27;20183;-65
2024/03/02 04:38:21;;;;;;;4.93;1.25;;;21.50;32.90;;;;;;5157217;27;20220;-65
2024/03/02 04:40:49;;;;;;;4.25;1.00;;;21.50;32.90;;;;;;5156970;27;20194;-66
2024/03/02 04:43:16;;;;;;;2.80;1.10;;;21.50;32.80;;;;;;5156854;27;20219;-64
2024/03/02 04:45:43;;;;;;;3.85;1.33;;;21.50;32.90;;;;;;5157125;27;20184;-66
2024/03/02 04:48:10;;;;;;;4.28;1.13;;;21.50;32.80;;;;;;5156337;27;20223;-65
2024/03/02 04:50:37;;;;;;;4.30;1.38;;;21.50;32.80;;;;;;5156659;27;20219;-65
2024/03/02 04:53:04;;;;;;;4.10;1.23;;;21.50;32.80;;;;;;5156896;27;20211;-65
2024/03/02 04:55:58;;;;;;;5.10;1.30;;;21.50;32.80;;;;;;5156360;27;20675;-65
2024/03/02 04:58:26;;;;;;;5.20;1.42;;;21.50;32.80;;;;;;5156789;27;20640;-65
2024/03/02 05:00:53;;;;;;;5.13;1.40;;;21.50;32.90;;;;;;5156976;27;20283;-65
2024/03/02 05:03:20;;;;;;;2.30;1.33;;;21.50;33.00;;;;;;5156322;27;20708;-65
2024/03/02 05:05:47;;;;;;;3.42;1.55;;;21.50;33.00;;;;;;5156398;27;20801;-65
2024/03/02 05:08:16;;;;;;;4.85;1.35;;;21.50;33.10;;;;;;5156041;27;20259;-64
2024/03/02 05:10:42;;;;;;;2.67;1.02;;;21.50;33.10;;;;;;5156226;27;20271;-64
2024/03/02 05:13:09;;;;;;;3.05;1.08;;;21.50;33.10;;;;;;5156614;27;20685;-65
2024/03/02 05:15:38;;;;;;;4.25;1.27;;;21.50;33.10;;;;;;5155986;27;20707;-64
2024/03/02 05:18:06;;;;;;;2.92;1.02;;;21.50;33.10;;;;;;5156474;27;20219;-65
2024/03/02 05:20:32;;;;;;;5.00;1.42;;;21.40;33.00;;;;;;5156451;27;20180;-65
2024/03/02 05:23:00;;;;;;;3.15;1.20;;;21.50;33.10;;;;;;5156420;27;20294;-65
2024/03/02 05:25:26;;;;;;;2.85;1.17;;;21.40;33.10;;;;;;5156244;27;20188;-65
2024/03/02 05:27:53;;;;;;;4.07;1.13;;;21.40;33.10;;;;;;5156060;27;20298;-65
2024/03/02 05:30:20;;;;;;;2.85;1.00;;;21.40;33.10;;;;;;5156258;27;20184;-65
2024/03/02 05:32:49;;;;;;;4.80;1.55;;;21.40;33.10;;;;;;5156021;27;20307;-66
2024/03/02 05:35:16;;;;;;;5.20;1.33;;;21.40;33.10;;;;;;5156306;27;20190;-66
2024/03/02 05:37:42;;;;;;;3.83;1.40;;;21.40;33.10;;;;;;5155730;27;20589;-66
2024/03/02 05:40:11;;;;;;;3.83;1.45;;;21.40;33.10;;;;;;5155850;27;20291;-66
2024/03/02 05:42:38;;;;;;;2.50;1.02;;;21.40;33.10;;;;;;5156022;27;20276;-65
2024/03/02 05:45:06;;;;;;;3.40;1.25;;;21.40;33.10;;;;;;5155975;27;20674;-65
2024/03/02 05:47:33;;;;;;;2.60;1.08;;;21.40;33.20;;;;;;5155594;27;20326;-65
2024/03/02 05:50:03;;;;;;;3.28;1.17;;;21.40;33.20;;;;;;5155760;27;20590;-65
2024/03/02 05:52:30;;;;;;;2.47;1.00;;;21.40;33.10;;;;;;5155771;27;20298;-63
2024/03/02 05:54:57;;;;;;;3.95;1.25;;;21.40;33.20;;;;;;5155572;27;20255;-66
2024/03/02 05:57:45;;;;;;;3.53;1.45;;;21.40;33.10;;;;;;5155434;27;20212;-65
2024/03/02 06:00:13;;;;;;;2.35;0.95;;;21.40;33.20;;;;;;5155340;27;20600;-65
2024/03/02 06:02:40;;;;;;;2.58;1.17;;;21.40;33.20;;;;;;5155484;27;20220;-63
2024/03/02 06:05:09;;;;;;;2.70;0.80;;;21.40;33.20;;;;;;5155419;27;20600;-66
2024/03/02 06:07:36;;;;;;;3.63;1.20;;;21.40;33.20;;;;;;5155475;27;20219;-66
2024/03/02 06:10:03;;;;;;;5.20;1.10;;;21.40;33.20;;;;;;5154827;27;20213;-66
2024/03/02 06:12:32;;;;;;;3.25;1.00;;;21.40;33.20;;;;;;5155411;27;20218;-63
2024/03/02 06:14:59;;;;;;;2.08;0.90;;;21.40;33.20;;;;;;5155306;27;20226;-66
2024/03/02 06:17:26;;;;;;;2.67;1.08;;;21.40;33.20;;;;;;5154972;27;20211;-63
2024/03/02 06:19:53;;;;;;;2.78;0.85;;;21.40;33.10;;;;;;5153877;27;20223;-66
2024/03/02 06:22:22;;;;;;;3.30;1.00;;;21.40;33.20;;;;;;5154752;27;20589;-65
2024/03/02 06:24:50;;;;;;;2.70;0.90;;;21.40;33.10;;;;;;5154663;27;20194;-65
2024/03/02 06:27:16;;;;;;;2.00;0.90;;;21.50;33.20;;;;;;5155047;27;20219;-65
2024/03/02 06:29:43;;;;;;;3.03;0.93;;;21.50;33.20;;;;;;5154973;27;20689;-66
2024/03/02 06:32:10;;;;;;;2.75;0.93;;;21.50;33.20;;;;;;5154759;27;20222;-65
2024/03/02 06:34:36;;;;;;;5.03;1.15;;;21.50;33.20;;;;;;5154964;27;20194;-65
2024/03/02 06:37:03;;;;;;;2.92;1.15;;;21.50;33.10;;;;;;5154977;27;20223;-66
2024/03/02 06:39:33;;;;;;;3.85;1.00;;;21.40;33.10;;;;;;5154647;27;20191;-65
2024/03/02 06:42:01;;;;;;;3.63;1.00;;;21.50;33.10;;;;;;5154763;27;20212;-65
2024/03/02 06:44:28;;;;;;;1.70;0.98;;;21.50;33.80;;;;;;5155041;27;20190;-65
2024/03/02 06:46:55;;;;;;;4.72;1.30;;;21.50;33.20;;;;;;5154293;27;20194;-65
2024/03/02 06:49:22;;;;;;;2.45;1.05;;;21.50;33.20;;;;;;5154767;27;20207;-65
2024/03/02 06:51:49;;;;;;;2.88;0.93;;;21.50;33.30;;;;;;5154135;27;20669;-66
2024/03/02 06:54:16;;;;;;;2.78;0.93;;;21.40;33.20;;;;;;5154390;27;20266;-64
2024/03/02 06:56:44;;;;;;;4.53;1.20;;;21.40;33.20;;;;;;5154518;27;20184;-65
2024/03/02 06:59:11;;;;;;;2.45;1.00;;;21.40;33.20;;;;;;5154477;27;20190;-65
2024/03/02 07:01:38;;;;;;;3.67;1.10;;;21.50;33.30;;;;;;5154308;27;20180;-65
2024/03/02 07:04:06;;;;;;;4.20;1.40;;;21.40;33.30;;;;;;5154369;27;20183;-65
2024/03/02 07:06:33;;;;;;;2.30;0.95;;;21.40;33.30;;;;;;5154460;27;20237;-65
2024/03/02 07:09:00;;;;;;;3.70;1.00;;;21.40;33.30;;;;;;5154143;27;20227;-66
2024/03/02 07:11:27;;;;;;;4.88;1.10;;;21.40;33.30;;;;;;5154156;27;20644;-66
2024/03/02 07:13:55;;;;;;;3.05;1.10;;;21.40;33.30;;;;;;5154196;27;20246;-66
2024/03/02 07:16:27;;;;;;;3.70;1.20;;;21.40;33.30;;;;;;5153932;27;20198;-65
2024/03/02 07:18:56;;;;;;;4.65;1.10;;;21.40;33.30;;;;;;5154474;27;20275;-65
2024/03/02 07:21:23;;;;;;;4.32;1.10;;;21.40;33.30;;;;;;5154059;27;20216;-65
2024/03/02 07:23:50;;;;;;;4.90;1.60;;;21.40;33.30;;;;;;5153821;27;20218;-65
2024/03/02 07:26:19;;;;;;;2.53;1.02;;;21.40;33.30;;;;;;5154143;27;20188;-64
2024/03/02 07:28:47;;;;;;;2.72;1.15;;;21.40;33.30;;;;;;5154282;27;20215;-66
2024/03/02 07:31:16;;;;;;;2.97;1.35;;;21.40;33.30;;;;;;5153661;27;20211;-66
2024/03/02 07:33:45;;;;;;;2.55;1.25;;;21.40;33.30;;;;;;5154033;27;20220;-66
2024/03/02 07:36:12;;;;;;;2.45;0.70;;;21.40;33.30;;;;;;5153776;27;20568;-65
2024/03/02 07:38:40;;;;;;;2.70;1.02;;;21.40;33.30;;;;;;5153677;27;20211;-66
2024/03/02 07:41:08;;;;;;;1.60;0.75;;;21.40;33.30;;;;;;5154020;27;20248;-65
2024/03/02 07:43:35;;;;;;;2.28;0.90;;;21.40;33.30;;;;;;5154115;27;20293;-65
2024/03/02 07:46:03;;;;;;;3.17;1.17;;;21.40;33.40;;;;;;5153426;27;20553;-64
2024/03/02 07:48:31;;;;;;;3.13;1.10;;;21.40;33.30;;;;;;5153633;27;20700;-66
2024/03/02 07:50:58;;;;;;;3.35;1.10;;;21.40;33.30;;;;;;5153861;27;20226;-65
2024/03/02 07:53:25;;;;;;;1.92;1.00;;;21.40;33.40;;;;;;5153836;27;20222;-65
2024/03/02 07:55:52;;;;;;;2.28;1.00;;;21.40;33.40;;;;;;5153789;27;20262;-65
2024/03/02 07:58:20;;;;;;;4.05;0.90;;;21.40;33.30;;;;;;5153893;27;20299;-66
2024/03/02 08:00:47;;;;;;;2.65;1.20;;;21.40;33.40;;;;;;5153190;27;20645;-65
2024/03/02 08:03:14;;;;;;;1.58;0.98;;;21.40;33.40;;;;;;5154106;27;20208;-66
2024/03/02 08:05:43;;;;;;;2.53;1.30;;;21.40;33.30;;;;;;5153777;27;20243;-65
2024/03/02 08:08:11;;;;;;;2.65;1.27;;;21.40;33.30;;;;;;5153724;27;20288;-65
2024/03/02 08:10:38;;;;;;;1.85;0.95;;;21.40;33.30;;;;;;5153604;27;20212;-64
2024/03/02 08:13:05;;;;;;;1.55;0.90;;;21.40;33.30;;;;;;5153530;27;20207;-65
2024/03/02 08:15:32;;;;;;;2.60;1.08;;;21.40;33.30;;;;;;5152984;27;20588;-65
2024/03/02 08:17:59;;;;;;;1.55;0.85;;;21.50;33.30;;;;;;5153319;27;20215;-65
2024/03/02 08:20:26;;;;;;;2.10;1.00;;;21.40;33.30;;;;;;5153602;27;20288;-66
2024/03/02 08:22:55;;;;;;;2.03;0.98;;;21.50;33.30;;;;;;5153247;27;20234;-64
2024/03/02 08:25:22;;;;;;;3.05;1.02;;;21.50;33.30;;;;;;5153316;27;20563;-64
2024/03/02 08:27:49;;;;;;;1.40;0.80;;;21.40;33.30;;;;;;5153444;27;20216;-66
2024/03/02 08:30:17;;;;;;;0.95;0.80;;;21.40;33.30;;;;;;5153285;27;20211;-66
2024/03/02 08:32:45;;;;;;;1.77;0.90;;;21.40;33.30;;;;;;5153174;27;20748;-66
2024/03/02 08:35:12;;;;;;;1.55;0.85;;;21.40;33.30;;;;;;5153417;27;20266;-65
2024/03/02 08:37:41;;;;;;;1.90;0.65;;;21.40;33.30;;;;;;5152895;27;20631;-65
2024/03/02 08:40:11;;;;;;;1.02;0.70;;;21.40;33.30;;;;;;5153171;27;20767;-66
2024/03/02 08:42:38;;;;;;;2.60;0.95;;;21.40;33.30;;;;;;5154951;27;20249;-64
2024/03/02 08:45:06;;;;;;;1.17;0.70;;;21.40;33.30;;;;;;5156513;27;20275;-66
2024/03/02 08:47:33;;;;;;;2.20;0.80;;;21.40;33.30;;;;;;5157101;27;20657;-65
2024/03/02 08:50:00;;;;;;;1.25;0.73;;;21.40;33.30;;;;;;5156954;27;20222;-64
2024/03/02 08:52:28;;;;;;;1.10;0.80;;;21.40;33.30;;;;;;5156743;27;20214;-65
2024/03/02 08:54:54;;;;;;;1.30;0.80;;;21.40;33.30;;;;;;5156992;27;20190;-66
2024/03/02 08:57:23;;;;;;;1.70;0.90;;;21.40;33.30;;;;;;5156568;27;20719;-64
2024/03/02 08:59:50;;;;;;;0.52;0.52;;;21.40;33.30;;;;;;5156523;27;20184;-65
2024/03/02 09:02:17;;;;;;;1.17;0.70;;;21.40;34.00;;;;;;5156838;27;20222;-65
2024/03/02 09:04:44;;;;;;;1.08;0.70;;;21.40;33.40;;;;;;5156531;27;20248;-65
2024/03/02 09:07:11;;;;;;;0.70;0.70;;;21.40;33.40;;;;;;5156481;27;20184;-66
2024/03/02 09:09:39;;;;;;;1.83;0.75;;;21.40;33.40;;;;;;5156272;27;20706;-66
2024/03/02 09:12:06;;;;;;;1.42;0.70;;;21.40;33.40;;;;;;5156454;27;20191;-65
2024/03/02 09:14:36;;;;;;;2.40;0.75;;;21.40;33.40;;;;;;5156111;27;20302;-65
2024/03/02 09:17:03;;;;;;;1.65;0.80;;;21.40;33.50;;;;;;5156586;27;20215;-66
2024/03/02 09:19:30;;;;;;;1.98;0.82;;;21.40;33.50;;;;;;5156525;27;20184;-66
2024/03/02 09:21:58;;;;;;;2.45;0.80;;;21.40;33.50;;;;;;5155858;27;20557;-66
2024/03/02 09:24:25;;;;;;;1.35;0.82;;;21.40;33.50;;;;;;5156485;27;20184;-66
2024/03/02 09:26:52;;;;;;;2.03;0.93;;;21.40;33.50;;;;;;5156245;27;20270;-66
2024/03/02 09:29:20;;;;;;;1.60;0.90;;;21.40;33.60;;;;;;5156365;27;20587;-65
2024/03/02 09:31:49;;;;;;;0.88;0.80;;;21.40;33.60;;;;;;5156039;27;20194;-65
2024/03/02 09:34:16;;;;;;;1.95;0.80;;;21.40;33.50;;;;;;5156283;27;20275;-66
2024/03/02 09:36:43;;;;;;;2.20;1.00;;;21.40;33.60;;;;;;5155631;27;20634;-65
2024/03/02 09:39:10;;;;;;;1.88;0.85;;;21.40;33.60;;;;;;5156037;27;20211;-65
2024/03/02 09:41:38;;;;;;;1.38;0.98;;;21.40;33.60;;;;;;5155660;27;20557;-66
2024/03/02 09:44:06;;;;;;;2.47;1.00;;;21.40;34.40;;;;;;5155413;27;20765;-65
2024/03/02 09:46:33;;;;;;;2.05;1.10;;;21.40;33.60;;;;;;5155884;27;20591;-66
2024/03/02 09:49:01;;;;;;;2.10;1.10;;;21.40;33.60;;;;;;5155735;27;20634;-66
2024/03/02 09:51:28;;;;;;;1.13;0.80;;;21.50;33.60;;;;;;5155384;27;20825;-65
2024/03/02 09:53:56;;;;;;;2.65;0.80;;;21.40;33.60;;;;;;5156036;27;20294;-65
2024/03/02 09:56:23;;;;;;;1.00;0.80;;;21.50;33.70;;;;;;5155776;27;20259;-66
2024/03/02 09:58:50;;;;;;;0.93;0.77;;;21.50;33.70;;;;;;5155063;27;20233;-65
2024/03/02 10:01:17;;;;;;;2.17;1.20;;;21.50;33.60;;;;;;5155665;27;20227;-65
2024/03/02 10:03:49;;;;;;;2.05;0.90;;;21.50;34.40;;;;;;5155706;27;20234;-65
2024/03/02 10:06:22;;;;;;;2.22;0.95;;;21.50;33.70;;;;;;5155373;27;20267;-64
2024/03/02 10:08:49;;;;;;;1.00;0.90;;;21.50;33.60;;;;;;5155413;27;20784;-65
2024/03/02 10:11:32;;;;;;;1.70;1.00;;;21.40;33.50;;;;;;5155305;27;20211;-66
2024/03/02 10:14:08;;;;;;;2.00;1.05;;;21.50;33.60;;;;;;5152700;27;20717;-65
2024/03/02 10:16:36;;;;;;;1.60;0.90;;;21.50;33.60;;;;;;5155305;27;20675;-65
2024/03/02 10:19:20;;;;;;;1.77;0.70;;;21.50;33.60;;;;;;5155415;27;20212;-66
2024/03/02 10:21:49;;;;;;;1.30;0.88;;;21.50;33.60;;;;;;5155025;27;20187;-64
2024/03/02 10:24:16;;;;;;;1.10;0.80;;;21.50;33.60;;;;;;5155440;27;20212;-66
2024/03/02 10:26:44;;;;;;;1.77;0.98;;;21.50;33.60;;;;;;5155163;27;20180;-65
2024/03/02 10:29:11;;;;;;;1.60;0.80;;;21.50;33.60;;;;;;5155075;27;20222;-65
2024/03/02 10:31:42;;;;;;;1.85;0.77;;;21.40;33.50;;;;;;5154511;27;20582;-66
2024/03/02 10:34:10;;;;;;;1.52;0.85;;;21.40;33.50;;;;;;5155056;27;20298;-65
2024/03/02 10:36:38;;;;;;;1.63;0.80;;;21.40;33.50;;;;;;5154678;27;20278;-65
2024/03/02 10:39:07;;;;;;;1.52;0.75;;;21.40;33.40;;;;;;5155118;27;20233;-66
2024/03/02 10:41:35;;;;;;;1.58;0.70;;;21.40;33.50;;;;;;5154470;27;20635;-64
2024/03/02 10:44:04;;;;;;;0.93;0.70;;;21.40;33.50;;;;;;5154799;27;20211;-65
2024/03/02 10:46:32;;;;;;;1.40;0.90;;;21.40;33.40;;;;;;5154750;27;20263;-65
2024/03/02 10:49:00;;;;;;;2.33;0.80;;;21.40;33.40;;;;;;5154683;27;20207;-65
2024/03/02 10:51:31;;;;;;;1.10;0.77;;;21.40;33.40;;;;;;5154394;27;20249;-65
2024/03/02 10:53:58;;;;;;;1.40;0.80;;;21.40;33.40;;;;;;5155053;27;20230;-65
2024/03/02 10:56:29;;;;;;;1.00;0.80;;;21.40;33.40;;;;;;5154355;27;20553;-66
2024/03/02 10:59:03;;;;;;;1.55;0.98;;;21.40;33.40;;;;;;5154351;27;20298;-66
2024/03/02 11:01:32;;;;;;;2.05;0.90;;;21.40;33.40;;;;;;5154589;27;20217;-65
2024/03/02 11:04:00;;;;;;;1.08;0.70;;;21.40;33.40;;;;;;5154311;27;20214;-65
2024/03/02 11:06:31;;;;;;;1.30;0.80;;;21.40;34.00;;;;;;5153546;27;20637;-64
2024/03/02 11:09:03;;;;;;;1.77;0.80;;;21.40;33.30;;;;;;5154527;27;20247;-65
2024/03/02 11:11:37;;;;;;;1.13;0.70;;;21.40;33.30;;;;;;5153923;27;20585;-65
2024/03/02 11:14:08;;;;;;;1.30;0.55;;;21.40;33.30;;;;;;5153674;27;20772;-65
2024/03/02 11:16:38;;;;;;;1.35;0.60;;;21.40;33.20;;;;;;5154066;27;20665;-66
2024/03/02 11:19:07;;;;;;;3.00;1.00;;;21.40;33.30;;;;;;5154082;27;20294;-65
2024/03/02 11:21:35;;;;;;;1.20;0.68;;;21.40;33.30;;;;;;5152605;27;20188;-66
2024/03/02 11:24:35;;;;;;;0.85;0.50;;;21.40;33.20;;;;;;5153928;27;20373;-65
2024/03/02 11:27:07;;;;;;;1.02;0.77;;;21.40;33.20;;;;;;5153525;27;20226;-65
2024/03/02 11:29:47;;;;;;;1.42;0.73;;;21.40;33.90;;;;;;5154614;27;20216;-66
2024/03/02 11:32:18;;;;;;;2.33;0.80;;;21.40;33.10;;;;;;5154019;27;20211;-65
2024/03/02 11:34:47;;;;;;;1.05;0.70;;;21.40;33.80;;;;;;5154058;27;20199;-66
2024/03/02 11:37:15;;;;;;;1.42;0.77;;;21.50;33.20;;;;;;5153789;27;20697;-65
2024/03/02 11:39:43;;;;;;;2.05;0.75;;;21.40;33.10;;;;;;5154163;27;20318;-66
2024/03/02 11:42:13;;;;;;;1.75;1.00;;;21.40;33.00;;;;;;5153774;27;20223;-65
2024/03/02 11:44:42;;;;;;;0.88;0.65;;;21.40;33.00;;;;;;5154159;27;20216;-64
2024/03/02 11:47:11;;;;;;;0.68;0.60;;;21.40;33.00;;;;;;5153903;27;20187;-66
2024/03/02 11:49:39;;;;;;;2.67;0.70;;;21.50;33.10;;;;;;5153833;27;20215;-65
2024/03/02 11:52:07;;;;;;;1.35;0.70;;;21.50;33.10;;;;;;5153462;27;20685;-64
2024/03/02 11:54:35;;;;;;;1.05;0.65;;;21.50;33.10;;;;;;5154022;27;20211;-64
2024/03/02 11:57:03;;;;;;;1.40;0.90;;;21.50;33.10;;;;;;5153908;27;20180;-65
2024/03/02 11:59:31;;;;;;;1.52;0.70;;;21.40;33.00;;;;;;5153834;27;20310;-63
2024/03/02 12:01:59;;;;;;;2.83;0.80;;;21.50;33.10;;;;;;5153846;27;20184;-65
2024/03/02 12:04:27;;;;;;;1.58;0.70;;;21.50;33.10;;;;;;5153730;27;20211;-66
2024/03/02 12:06:59;;;;;;;1.92;0.75;;;21.50;33.00;;;;;;5153870;27;20267;-66
2024/03/02 12:09:27;;;;;;;2.92;1.10;;;21.40;32.90;;;;;;5153559;27;20216;-65
2024/03/02 12:12:04;;;;;;;1.63;0.60;;;21.40;32.90;;;;;;5152973;27;20211;-65
2024/03/02 12:14:33;;;;;;;2.58;0.80;;;21.40;32.80;;;;;;5153632;27;20227;-65
2024/03/02 12:17:00;;;;;;;1.77;0.55;;;21.40;32.80;;;;;;5154582;27;20199;-64
2024/03/02 12:19:29;;;;;;;1.30;0.70;;;21.40;32.80;;;;;;5157404;27;20294;-65
2024/03/02 12:21:58;;;;;;;2.17;0.70;;;21.40;32.80;;;;;;5157544;27;20194;-65
2024/03/02 12:24:25;;;;;;;0.85;0.65;;;21.40;32.80;;;;;;5157656;27;20221;-64
2024/03/02 12:26:53;;;;;;;1.52;0.85;;;21.40;32.70;;;;;;5157328;27;20188;-66
2024/03/02 12:29:21;;;;;;;1.75;0.60;;;21.40;32.80;;;;;;5157190;27;20211;-66
2024/03/02 12:31:51;;;;;;;0.98;0.80;;;21.40;32.80;;;;;;5157400;27;20218;-66
2024/03/02 12:34:19;;;;;;;1.65;0.75;;;21.40;32.70;;;;;;5156789;27;20614;-65
2024/03/02 12:36:49;;;;;;;1.27;0.60;;;21.40;32.70;;;;;;5157176;27;20658;-65
2024/03/02 12:39:16;;;;;;;1.42;0.70;;;21.40;32.70;;;;;;5156936;27;20215;-66
2024/03/02 12:41:43;;;;;;;0.90;0.75;;;21.40;32.70;;;;;;5156981;27;20191;-66
2024/03/02 12:44:10;;;;;;;0.98;0.50;;;21.40;32.70;;;;;;5157087;27;20215;-64
2024/03/02 12:46:38;;;;;;;1.33;0.70;;;21.40;32.70;;;;;;5157213;27;20184;-66
2024/03/02 12:49:11;;;;;;;2.97;0.77;;;21.40;32.80;;;;;;5156534;27;20211;-66
2024/03/02 12:51:40;;;;;;;1.83;0.85;;;21.40;32.90;;;;;;5156958;27;20219;-66
2024/03/02 12:54:07;;;;;;;1.95;0.60;;;21.40;32.90;;;;;;5156982;27;20704;-66